sensor_id;sensor_type;location;lat;lon;timestamp;pressure;altitude;pressure_sealevel;temperature;humidity
37202;BME280;37799;52.390;6.136;2022-11-20T00:00:08;101395.53;;;-5.04;100.00
37202;BME280;37799;52.390;6.136;2022-11-20T00:02:34;101398.00;;;-5.06;100.00
37202;BME280;37799;52.390;6.136;2022-11-20T00:04:59;101397.69;;;-5.12;100.00
37202;BME280;37799;52.390;6.136;2022-11-20T00:07:24;101393.63;;;-5.08;100.00
37202;BME280;37799;52.390;6.136;2022-11-20T00:09:49;101392.72;;;-5.10;100.00
37202;BME280;37799;52.390;6.136;2022-11-20T00:12:15;101394.44;;;-5.09;100.00
37202;BME280;37799;52.390;6.136;2022-11-20T00:14:41;101389.75;;;-5.01;100.00
37202;BME280;37799;52.390;6.136;2022-11-20T00:17:06;101385.31;;;-5.07;100.00
37202;BME280;37799;52.390;6.136;2022-11-20T00:19:32;101373.31;;;-5.11;100.00
37202;BME280;37799;52.390;6.136;2022-11-20T00:21:57;101373.19;;;-5.14;100.00
37202;BME280;37799;52.390;6.136;2022-11-20T00:24:22;101373.03;;;-5.17;100.00
37202;BME280;37799;52.390;6.136;2022-11-20T00:26:47;101367.13;;;-5.18;100.00
37202;BME280;37799;52.390;6.136;2022-11-20T00:29:13;101357.03;;;-5.18;100.00
37202;BME280;37799;52.390;6.136;2022-11-20T00:31:38;101352.03;;;-5.16;100.00
37202;BME280;37799;52.390;6.136;2022-11-20T00:34:03;101354.13;;;-5.25;100.00
37202;BME280;37799;52.390;6.136;2022-11-20T00:36:32;101343.13;;;-5.27;100.00
37202;BME280;37799;52.390;6.136;2022-11-20T00:38:58;101352.28;;;-5.29;100.00
37202;BME280;37799;52.390;6.136;2022-11-20T00:41:25;101347.56;;;-5.22;100.00
37202;BME280;37799;52.390;6.136;2022-11-20T00:43:52;101345.63;;;-5.27;100.00
37202;BME280;37799;52.390;6.136;2022-11-20T00:46:19;101355.59;;;-5.30;100.00
37202;BME280;37799;52.390;6.136;2022-11-20T00:48:45;101354.56;;;-5.34;100.00
37202;BME280;37799;52.390;6.136;2022-11-20T00:51:15;101348.81;;;-5.31;100.00
37202;BME280;37799;52.390;6.136;2022-11-20T00:53:41;101350.63;;;-5.29;100.00
37202;BME280;37799;52.390;6.136;2022-11-20T00:56:10;101352.47;;;-5.25;100.00
37202;BME280;37799;52.390;6.136;2022-11-20T00:58:37;101349.03;;;-5.27;100.00
37202;BME280;37799;52.390;6.136;2022-11-20T01:01:05;101349.16;;;-5.24;100.00
37202;BME280;37799;52.390;6.136;2022-11-20T01:03:32;101344.91;;;-5.25;100.00
37202;BME280;37799;52.390;6.136;2022-11-20T01:06:02;101349.03;;;-5.27;100.00
37202;BME280;37799;52.390;6.136;2022-11-20T01:08:32;101347.78;;;-5.35;100.00
37202;BME280;37799;52.390;6.136;2022-11-20T01:11:15;101346.88;;;-5.37;100.00
37202;BME280;37799;52.390;6.136;2022-11-20T01:13:42;101345.78;;;-5.42;100.00
37202;BME280;37799;52.390;6.136;2022-11-20T01:16:34;101354.97;;;-5.44;100.00
37202;BME280;37799;52.390;6.136;2022-11-20T01:19:02;101354.22;;;-5.42;100.00
37202;BME280;37799;52.390;6.136;2022-11-20T01:21:31;101355.97;;;-5.41;100.00
37202;BME280;37799;52.390;6.136;2022-11-20T01:23:57;101364.19;;;-5.45;100.00
37202;BME280;37799;52.390;6.136;2022-11-20T01:26:28;101357.25;;;-5.49;100.00
37202;BME280;37799;52.390;6.136;2022-11-20T01:28:53;101357.78;;;-5.56;100.00
37202;BME280;37799;52.390;6.136;2022-11-20T01:31:21;101350.28;;;-5.54;100.00
37202;BME280;37799;52.390;6.136;2022-11-20T01:33:49;101345.66;;;-5.45;100.00
37202;BME280;37799;52.390;6.136;2022-11-20T01:36:16;101347.72;;;-5.37;100.00
37202;BME280;37799;52.390;6.136;2022-11-20T01:38:42;101346.13;;;-5.35;100.00
37202;BME280;37799;52.390;6.136;2022-11-20T01:41:09;101339.66;;;-5.29;100.00
37202;BME280;37799;52.390;6.136;2022-11-20T01:43:34;101345.50;;;-5.30;100.00
37202;BME280;37799;52.390;6.136;2022-11-20T01:46:14;101329.63;;;-5.28;100.00
37202;BME280;37799;52.390;6.136;2022-11-20T01:51:29;101334.47;;;-5.32;100.00
37202;BME280;37799;52.390;6.136;2022-11-20T01:53:59;101337.63;;;-5.37;100.00
37202;BME280;37799;52.390;6.136;2022-11-20T01:56:26;101325.25;;;-5.32;100.00
37202;BME280;37799;52.390;6.136;2022-11-20T01:58:54;101323.06;;;-5.24;100.00
37202;BME280;37799;52.390;6.136;2022-11-20T02:01:21;101324.78;;;-5.23;100.00
37202;BME280;37799;52.390;6.136;2022-11-20T02:03:47;101323.78;;;-5.27;100.00
37202;BME280;37799;52.390;6.136;2022-11-20T02:06:33;101320.75;;;-5.38;100.00
37202;BME280;37799;52.390;6.136;2022-11-20T02:09:00;101322.09;;;-5.46;100.00
37202;BME280;37799;52.390;6.136;2022-11-20T02:11:26;101316.88;;;-5.49;100.00
37202;BME280;37799;52.390;6.136;2022-11-20T02:13:51;101307.81;;;-5.45;100.00
37202;BME280;37799;52.390;6.136;2022-11-20T02:16:21;101306.09;;;-5.46;100.00
37202;BME280;37799;52.390;6.136;2022-11-20T02:18:48;101295.81;;;-5.49;100.00
37202;BME280;37799;52.390;6.136;2022-11-20T02:21:37;101300.59;;;-5.55;100.00
37202;BME280;37799;52.390;6.136;2022-11-20T02:24:14;101301.59;;;-5.52;100.00
37202;BME280;37799;52.390;6.136;2022-11-20T02:26:46;101296.41;;;-5.55;100.00
37202;BME280;37799;52.390;6.136;2022-11-20T02:29:19;101292.81;;;-5.60;100.00
37202;BME280;37799;52.390;6.136;2022-11-20T02:31:46;101292.53;;;-5.66;100.00
37202;BME280;37799;52.390;6.136;2022-11-20T02:34:12;101289.06;;;-5.68;100.00
37202;BME280;37799;52.390;6.136;2022-11-20T02:36:39;101288.06;;;-5.72;100.00
37202;BME280;37799;52.390;6.136;2022-11-20T02:39:05;101287.97;;;-5.73;100.00
37202;BME280;37799;52.390;6.136;2022-11-20T02:41:36;101287.78;;;-5.78;100.00
37202;BME280;37799;52.390;6.136;2022-11-20T02:44:02;101284.25;;;-5.81;100.00
37202;BME280;37799;52.390;6.136;2022-11-20T02:46:28;101285.97;;;-5.80;100.00
37202;BME280;37799;52.390;6.136;2022-11-20T02:48:53;101288.38;;;-5.83;100.00
37202;BME280;37799;52.390;6.136;2022-11-20T02:51:19;101292.53;;;-5.84;100.00
37202;BME280;37799;52.390;6.136;2022-11-20T02:53:44;101293.34;;;-5.85;100.00
37202;BME280;37799;52.390;6.136;2022-11-20T02:56:10;101284.19;;;-5.83;100.00
37202;BME280;37799;52.390;6.136;2022-11-20T02:58:35;101281.06;;;-5.77;100.00
37202;BME280;37799;52.390;6.136;2022-11-20T03:01:00;101282.00;;;-5.75;100.00
37202;BME280;37799;52.390;6.136;2022-11-20T03:03:25;101268.59;;;-5.74;100.00
37202;BME280;37799;52.390;6.136;2022-11-20T03:05:51;101280.41;;;-5.73;100.00
37202;BME280;37799;52.390;6.136;2022-11-20T03:08:16;101289.00;;;-5.70;100.00
37202;BME280;37799;52.390;6.136;2022-11-20T03:10:41;101281.13;;;-5.76;100.00
37202;BME280;37799;52.390;6.136;2022-11-20T03:13:06;101285.13;;;-5.81;100.00
37202;BME280;37799;52.390;6.136;2022-11-20T03:15:32;101282.59;;;-5.81;100.00
37202;BME280;37799;52.390;6.136;2022-11-20T03:17:57;101275.75;;;-5.83;100.00
37202;BME280;37799;52.390;6.136;2022-11-20T03:20:23;101286.56;;;-5.86;100.00
37202;BME280;37799;52.390;6.136;2022-11-20T03:22:48;101286.63;;;-5.84;100.00
37202;BME280;37799;52.390;6.136;2022-11-20T03:25:13;101283.31;;;-5.83;100.00
37202;BME280;37799;52.390;6.136;2022-11-20T03:27:38;101273.28;;;-5.82;100.00
37202;BME280;37799;52.390;6.136;2022-11-20T03:30:04;101266.59;;;-5.81;100.00
37202;BME280;37799;52.390;6.136;2022-11-20T03:32:30;101266.88;;;-5.75;100.00
37202;BME280;37799;52.390;6.136;2022-11-20T03:34:56;101261.81;;;-5.75;100.00
37202;BME280;37799;52.390;6.136;2022-11-20T03:37:21;101262.19;;;-5.68;100.00
37202;BME280;37799;52.390;6.136;2022-11-20T03:39:46;101251.97;;;-5.71;100.00
37202;BME280;37799;52.390;6.136;2022-11-20T03:42:12;101253.31;;;-5.77;100.00
37202;BME280;37799;52.390;6.136;2022-11-20T03:44:56;101247.34;;;-5.79;100.00
37202;BME280;37799;52.390;6.136;2022-11-20T03:47:21;101253.91;;;-5.83;100.00
37202;BME280;37799;52.390;6.136;2022-11-20T03:49:47;101248.75;;;-5.86;100.00
37202;BME280;37799;52.390;6.136;2022-11-20T03:52:12;101243.44;;;-5.92;100.00
37202;BME280;37799;52.390;6.136;2022-11-20T03:54:37;101246.59;;;-5.96;100.00
37202;BME280;37799;52.390;6.136;2022-11-20T03:57:04;101238.31;;;-5.93;100.00
37202;BME280;37799;52.390;6.136;2022-11-20T03:59:29;101243.34;;;-5.93;100.00
37202;BME280;37799;52.390;6.136;2022-11-20T04:01:54;101252.22;;;-6.02;100.00
37202;BME280;37799;52.390;6.136;2022-11-20T04:04:20;101250.34;;;-6.06;100.00
37202;BME280;37799;52.390;6.136;2022-11-20T04:06:45;101250.22;;;-6.09;100.00
37202;BME280;37799;52.390;6.136;2022-11-20T04:09:10;101245.72;;;-6.14;100.00
37202;BME280;37799;52.390;6.136;2022-11-20T04:11:37;101249.81;;;-6.16;100.00
37202;BME280;37799;52.390;6.136;2022-11-20T04:14:06;101247.97;;;-6.20;100.00
37202;BME280;37799;52.390;6.136;2022-11-20T04:16:36;101234.69;;;-6.16;100.00
37202;BME280;37799;52.390;6.136;2022-11-20T04:19:04;101238.09;;;-6.16;100.00
37202;BME280;37799;52.390;6.136;2022-11-20T04:21:30;101236.44;;;-6.15;100.00
37202;BME280;37799;52.390;6.136;2022-11-20T04:23:55;101230.97;;;-6.07;100.00
37202;BME280;37799;52.390;6.136;2022-11-20T04:26:22;101229.31;;;-6.06;100.00
37202;BME280;37799;52.390;6.136;2022-11-20T04:28:48;101239.69;;;-6.18;100.00
37202;BME280;37799;52.390;6.136;2022-11-20T04:31:16;101234.34;;;-6.24;100.00
37202;BME280;37799;52.390;6.136;2022-11-20T04:33:42;101234.50;;;-6.21;100.00
37202;BME280;37799;52.390;6.136;2022-11-20T04:36:11;101235.84;;;-6.28;100.00
37202;BME280;37799;52.390;6.136;2022-11-20T04:38:37;101228.88;;;-6.33;100.00
37202;BME280;37799;52.390;6.136;2022-11-20T04:41:05;101227.00;;;-6.37;100.00
37202;BME280;37799;52.390;6.136;2022-11-20T04:43:31;101228.66;;;-6.38;100.00
37202;BME280;37799;52.390;6.136;2022-11-20T04:45:57;101228.72;;;-6.36;100.00
37202;BME280;37799;52.390;6.136;2022-11-20T04:48:23;101216.13;;;-6.36;100.00
37202;BME280;37799;52.390;6.136;2022-11-20T04:50:49;101218.78;;;-6.33;100.00
37202;BME280;37799;52.390;6.136;2022-11-20T04:53:14;101210.56;;;-6.29;100.00
37202;BME280;37799;52.390;6.136;2022-11-20T04:55:40;101210.88;;;-6.23;100.00
37202;BME280;37799;52.390;6.136;2022-11-20T04:58:05;101203.31;;;-6.23;100.00
37202;BME280;37799;52.390;6.136;2022-11-20T05:00:31;101205.66;;;-6.26;100.00
37202;BME280;37799;52.390;6.136;2022-11-20T05:02:56;101202.22;;;-6.28;100.00
37202;BME280;37799;52.390;6.136;2022-11-20T05:05:21;101202.06;;;-6.31;100.00
37202;BME280;37799;52.390;6.136;2022-11-20T05:07:47;101203.53;;;-6.18;100.00
37202;BME280;37799;52.390;6.136;2022-11-20T05:10:12;101203.91;;;-6.11;100.00
37202;BME280;37799;52.390;6.136;2022-11-20T05:12:37;101199.47;;;-6.15;100.00
37202;BME280;37799;52.390;6.136;2022-11-20T05:15:03;101210.09;;;-6.22;100.00
37202;BME280;37799;52.390;6.136;2022-11-20T05:17:28;101209.94;;;-6.07;100.00
37202;BME280;37799;52.390;6.136;2022-11-20T05:19:54;101205.97;;;-6.02;100.00
37202;BME280;37799;52.390;6.136;2022-11-20T05:22:19;101210.06;;;-6.04;100.00
37202;BME280;37799;52.390;6.136;2022-11-20T05:24:44;101202.44;;;-6.06;100.00
37202;BME280;37799;52.390;6.136;2022-11-20T05:27:09;101202.88;;;-6.14;100.00
37202;BME280;37799;52.390;6.136;2022-11-20T05:29:35;101211.00;;;-6.20;100.00
37202;BME280;37799;52.390;6.136;2022-11-20T05:32:00;101206.25;;;-6.14;100.00
37202;BME280;37799;52.390;6.136;2022-11-20T05:34:25;101216.19;;;-5.99;100.00
37202;BME280;37799;52.390;6.136;2022-11-20T05:36:50;101209.28;;;-6.03;100.00
37202;BME280;37799;52.390;6.136;2022-11-20T05:39:16;101213.47;;;-6.04;100.00
37202;BME280;37799;52.390;6.136;2022-11-20T05:41:41;101210.44;;;-5.97;100.00
37202;BME280;37799;52.390;6.136;2022-11-20T05:44:06;101213.09;;;-5.93;100.00
37202;BME280;37799;52.390;6.136;2022-11-20T05:46:32;101206.00;;;-5.83;100.00
37202;BME280;37799;52.390;6.136;2022-11-20T05:48:58;101201.59;;;-5.69;100.00
37202;BME280;37799;52.390;6.136;2022-11-20T05:51:24;101194.16;;;-5.66;100.00
37202;BME280;37799;52.390;6.136;2022-11-20T05:53:49;101189.03;;;-5.68;100.00
37202;BME280;37799;52.390;6.136;2022-11-20T05:56:17;101189.91;;;-5.67;100.00
37202;BME280;37799;52.390;6.136;2022-11-20T05:58:43;101182.34;;;-5.67;100.00
37202;BME280;37799;52.390;6.136;2022-11-20T06:01:26;101189.72;;;-5.72;100.00
37202;BME280;37799;52.390;6.136;2022-11-20T06:03:54;101196.25;;;-5.75;100.00
37202;BME280;37799;52.390;6.136;2022-11-20T06:06:20;101198.63;;;-5.78;100.00
37202;BME280;37799;52.390;6.136;2022-11-20T06:08:45;101197.28;;;-5.89;100.00
37202;BME280;37799;52.390;6.136;2022-11-20T06:11:12;101194.38;;;-5.79;100.00
37202;BME280;37799;52.390;6.136;2022-11-20T06:13:38;101195.97;;;-5.81;100.00
37202;BME280;37799;52.390;6.136;2022-11-20T06:16:04;101201.34;;;-5.93;100.00
37202;BME280;37799;52.390;6.136;2022-11-20T06:18:29;101192.56;;;-6.01;100.00
37202;BME280;37799;52.390;6.136;2022-11-20T06:21:08;101204.53;;;-5.97;100.00
37202;BME280;37799;52.390;6.136;2022-11-20T06:23:35;101197.78;;;-5.98;100.00
37202;BME280;37799;52.390;6.136;2022-11-20T06:26:22;101201.94;;;-5.99;100.00
37202;BME280;37799;52.390;6.136;2022-11-20T06:28:48;101198.91;;;-5.91;100.00
37202;BME280;37799;52.390;6.136;2022-11-20T06:31:16;101201.44;;;-5.91;100.00
37202;BME280;37799;52.390;6.136;2022-11-20T06:33:42;101190.09;;;-6.00;100.00
37202;BME280;37799;52.390;6.136;2022-11-20T06:36:10;101180.47;;;-6.08;100.00
37202;BME280;37799;52.390;6.136;2022-11-20T06:38:37;101186.31;;;-6.09;100.00
37202;BME280;37799;52.390;6.136;2022-11-20T06:41:04;101185.84;;;-6.01;100.00
37202;BME280;37799;52.390;6.136;2022-11-20T06:43:29;101187.44;;;-6.03;100.00
37202;BME280;37799;52.390;6.136;2022-11-20T06:45:56;101194.75;;;-6.09;100.00
37202;BME280;37799;52.390;6.136;2022-11-20T06:48:22;101196.16;;;-6.14;100.00
37202;BME280;37799;52.390;6.136;2022-11-20T06:50:48;101203.16;;;-6.08;100.00
37202;BME280;37799;52.390;6.136;2022-11-20T06:53:14;101198.34;;;-6.04;100.00
37202;BME280;37799;52.390;6.136;2022-11-20T06:55:46;101202.88;;;-5.97;100.00
37202;BME280;37799;52.390;6.136;2022-11-20T06:58:15;101205.63;;;-5.73;100.00
37202;BME280;37799;52.390;6.136;2022-11-20T07:00:40;101204.28;;;-5.84;100.00
37202;BME280;37799;52.390;6.136;2022-11-20T07:03:07;101204.22;;;-5.85;100.00
37202;BME280;37799;52.390;6.136;2022-11-20T07:05:34;101202.75;;;-5.80;100.00
37202;BME280;37799;52.390;6.136;2022-11-20T07:07:59;101201.03;;;-5.81;100.00
37202;BME280;37799;52.390;6.136;2022-11-20T07:10:25;101208.00;;;-5.76;100.00
37202;BME280;37799;52.390;6.136;2022-11-20T07:12:51;101199.19;;;-5.66;100.00
37202;BME280;37799;52.390;6.136;2022-11-20T07:15:17;101200.66;;;-5.71;100.00
37202;BME280;37799;52.390;6.136;2022-11-20T07:17:43;101197.16;;;-5.73;100.00
37202;BME280;37799;52.390;6.136;2022-11-20T07:20:09;101198.19;;;-5.70;100.00
37202;BME280;37799;52.390;6.136;2022-11-20T07:22:34;101195.31;;;-5.77;100.00
37202;BME280;37799;52.390;6.136;2022-11-20T07:24:59;101204.34;;;-5.82;100.00
37202;BME280;37799;52.390;6.136;2022-11-20T07:27:25;101203.41;;;-5.84;100.00
37202;BME280;37799;52.390;6.136;2022-11-20T07:29:51;101204.47;;;-5.79;100.00
37202;BME280;37799;52.390;6.136;2022-11-20T07:32:16;101204.75;;;-5.73;100.00
37202;BME280;37799;52.390;6.136;2022-11-20T07:34:41;101200.00;;;-5.67;100.00
37202;BME280;37799;52.390;6.136;2022-11-20T07:37:06;101207.03;;;-5.60;100.00
37202;BME280;37799;52.390;6.136;2022-11-20T07:39:32;101195.38;;;-5.58;100.00
37202;BME280;37799;52.390;6.136;2022-11-20T07:41:57;101193.16;;;-5.50;100.00
37202;BME280;37799;52.390;6.136;2022-11-20T07:44:22;101192.78;;;-5.40;100.00
37202;BME280;37799;52.390;6.136;2022-11-20T07:46:47;101184.34;;;-5.41;100.00
37202;BME280;37799;52.390;6.136;2022-11-20T07:49:13;101178.38;;;-5.43;100.00
37202;BME280;37799;52.390;6.136;2022-11-20T07:51:38;101182.63;;;-5.42;100.00
37202;BME280;37799;52.390;6.136;2022-11-20T07:54:03;101181.94;;;-5.38;100.00
37202;BME280;37799;52.390;6.136;2022-11-20T07:56:29;101177.13;;;-5.33;100.00
37202;BME280;37799;52.390;6.136;2022-11-20T07:58:54;101177.50;;;-5.24;100.00
37202;BME280;37799;52.390;6.136;2022-11-20T08:01:19;101178.16;;;-5.09;100.00
37202;BME280;37799;52.390;6.136;2022-11-20T08:03:45;101186.53;;;-4.69;100.00
37202;BME280;37799;52.390;6.136;2022-11-20T08:06:10;101174.97;;;-4.00;100.00
37202;BME280;37799;52.390;6.136;2022-11-20T08:08:35;101166.69;;;-3.51;100.00
37202;BME280;37799;52.390;6.136;2022-11-20T08:11:01;101175.47;;;-3.18;100.00
37202;BME280;37799;52.390;6.136;2022-11-20T08:13:45;101175.06;;;-2.81;100.00
37202;BME280;37799;52.390;6.136;2022-11-20T08:16:29;101177.19;;;-2.68;100.00
37202;BME280;37799;52.390;6.136;2022-11-20T08:18:54;101174.53;;;-2.45;100.00
37202;BME280;37799;52.390;6.136;2022-11-20T08:21:20;101176.16;;;-2.47;100.00
37202;BME280;37799;52.390;6.136;2022-11-20T08:23:45;101172.41;;;-2.58;100.00
37202;BME280;37799;52.390;6.136;2022-11-20T08:26:10;101169.53;;;-2.69;100.00
37202;BME280;37799;52.390;6.136;2022-11-20T08:28:36;101171.69;;;-2.80;100.00
37202;BME280;37799;52.390;6.136;2022-11-20T08:31:02;101165.31;;;-2.94;100.00
37202;BME280;37799;52.390;6.136;2022-11-20T08:33:28;101168.19;;;-3.09;100.00
37202;BME280;37799;52.390;6.136;2022-11-20T08:35:58;101160.69;;;-3.06;100.00
37202;BME280;37799;52.390;6.136;2022-11-20T08:38:23;101159.16;;;-3.01;100.00
37202;BME280;37799;52.390;6.136;2022-11-20T08:40:49;101156.91;;;-3.17;100.00
37202;BME280;37799;52.390;6.136;2022-11-20T08:43:34;101165.22;;;-3.21;100.00
37202;BME280;37799;52.390;6.136;2022-11-20T08:45:59;101164.94;;;-3.05;100.00
37202;BME280;37799;52.390;6.136;2022-11-20T08:48:24;101163.28;;;-3.04;100.00
37202;BME280;37799;52.390;6.136;2022-11-20T08:50:50;101150.66;;;-3.03;100.00
37202;BME280;37799;52.390;6.136;2022-11-20T08:53:15;101158.06;;;-3.09;100.00
37202;BME280;37799;52.390;6.136;2022-11-20T08:55:40;101153.41;;;-2.71;100.00
37202;BME280;37799;52.390;6.136;2022-11-20T08:58:06;101156.75;;;-2.98;100.00
37202;BME280;37799;52.390;6.136;2022-11-20T09:00:33;101155.13;;;-2.95;100.00
37202;BME280;37799;52.390;6.136;2022-11-20T09:02:58;101154.91;;;-2.51;100.00
37202;BME280;37799;52.390;6.136;2022-11-20T09:05:25;101148.31;;;-2.73;100.00
37202;BME280;37799;52.390;6.136;2022-11-20T09:07:50;101151.16;;;-2.62;100.00
37202;BME280;37799;52.390;6.136;2022-11-20T09:10:16;101148.69;;;-2.60;100.00
37202;BME280;37799;52.390;6.136;2022-11-20T09:12:41;101150.66;;;-2.52;100.00
37202;BME280;37799;52.390;6.136;2022-11-20T09:15:07;101145.28;;;-2.61;100.00
37202;BME280;37799;52.390;6.136;2022-11-20T09:17:32;101145.75;;;-2.47;100.00
37202;BME280;37799;52.390;6.136;2022-11-20T09:19:57;101145.06;;;-2.42;100.00
37202;BME280;37799;52.390;6.136;2022-11-20T09:22:23;101142.09;;;-2.28;100.00
37202;BME280;37799;52.390;6.136;2022-11-20T09:24:49;101126.72;;;-2.06;100.00
37202;BME280;37799;52.390;6.136;2022-11-20T09:27:14;101134.91;;;-2.15;100.00
37202;BME280;37799;52.390;6.136;2022-11-20T09:29:39;101128.84;;;-1.91;100.00
37202;BME280;37799;52.390;6.136;2022-11-20T09:32:05;101131.75;;;-2.08;100.00
37202;BME280;37799;52.390;6.136;2022-11-20T09:34:30;101134.56;;;-1.97;100.00
37202;BME280;37799;52.390;6.136;2022-11-20T09:36:55;101133.06;;;-1.62;100.00
37202;BME280;37799;52.390;6.136;2022-11-20T09:39:21;101127.38;;;-1.83;100.00
37202;BME280;37799;52.390;6.136;2022-11-20T09:47:31;101122.53;;;-1.44;100.00
37202;BME280;37799;52.390;6.136;2022-11-20T09:50:36;101122.97;;;-1.29;100.00
37202;BME280;37799;52.390;6.136;2022-11-20T09:53:29;101125.53;;;-1.29;100.00
37202;BME280;37799;52.390;6.136;2022-11-20T09:55:56;101119.00;;;-1.17;100.00
37202;BME280;37799;52.390;6.136;2022-11-20T09:58:31;101117.66;;;-1.05;100.00
37202;BME280;37799;52.390;6.136;2022-11-20T10:01:07;101117.91;;;-0.96;100.00
37202;BME280;37799;52.390;6.136;2022-11-20T10:06:12;101098.91;;;-1.10;100.00
37202;BME280;37799;52.390;6.136;2022-11-20T10:08:43;101096.47;;;-1.05;100.00
37202;BME280;37799;52.390;6.136;2022-11-20T10:16:47;101103.41;;;-0.65;100.00
37202;BME280;37799;52.390;6.136;2022-11-20T10:25:18;101086.53;;;-0.24;100.00
37202;BME280;37799;52.390;6.136;2022-11-20T10:28:07;101089.41;;;-0.09;100.00
37202;BME280;37799;52.390;6.136;2022-11-20T10:30:42;101077.88;;;0.09;100.00
37202;BME280;37799;52.390;6.136;2022-11-20T10:33:16;101078.59;;;0.02;100.00
37202;BME280;37799;52.390;6.136;2022-11-20T10:35:44;101078.69;;;0.06;100.00
37202;BME280;37799;52.390;6.136;2022-11-20T10:38:23;101078.06;;;0.16;100.00
37202;BME280;37799;52.390;6.136;2022-11-20T10:40:57;101072.09;;;0.16;100.00
37202;BME280;37799;52.390;6.136;2022-11-20T10:43:44;101069.84;;;0.31;100.00
37202;BME280;37799;52.390;6.136;2022-11-20T10:46:17;101062.50;;;0.46;100.00
37202;BME280;37799;52.390;6.136;2022-11-20T10:48:45;101068.44;;;0.47;100.00
37202;BME280;37799;52.390;6.136;2022-11-20T10:54:22;101067.22;;;0.73;100.00
37202;BME280;37799;52.390;6.136;2022-11-20T10:56:53;101076.47;;;0.67;100.00
37202;BME280;37799;52.390;6.136;2022-11-20T10:59:30;101069.94;;;0.82;100.00
37202;BME280;37799;52.390;6.136;2022-11-20T11:01:59;101066.22;;;1.13;100.00
37202;BME280;37799;52.390;6.136;2022-11-20T11:04:40;101068.53;;;0.98;100.00
37202;BME280;37799;52.390;6.136;2022-11-20T11:07:13;101064.50;;;1.12;100.00
37202;BME280;37799;52.390;6.136;2022-11-20T11:09:47;101062.81;;;1.14;100.00
37202;BME280;37799;52.390;6.136;2022-11-20T11:12:13;101059.47;;;1.17;100.00
37202;BME280;37799;52.390;6.136;2022-11-20T11:14:47;101056.19;;;1.24;100.00
37202;BME280;37799;52.390;6.136;2022-11-20T11:17:33;101054.03;;;1.50;100.00
37202;BME280;37799;52.390;6.136;2022-11-20T11:20:06;101049.09;;;1.62;100.00
37202;BME280;37799;52.390;6.136;2022-11-20T11:22:45;101041.00;;;1.94;100.00
37202;BME280;37799;52.390;6.136;2022-11-20T11:25:20;101037.13;;;2.26;100.00
37202;BME280;37799;52.390;6.136;2022-11-20T11:27:47;101031.31;;;2.41;100.00
37202;BME280;37799;52.390;6.136;2022-11-20T11:30:14;101033.06;;;2.47;100.00
37202;BME280;37799;52.390;6.136;2022-11-20T11:32:40;101032.31;;;2.57;100.00
37202;BME280;37799;52.390;6.136;2022-11-20T11:35:19;101030.56;;;2.48;100.00
37202;BME280;37799;52.390;6.136;2022-11-20T11:37:45;101021.25;;;2.58;100.00
37202;BME280;37799;52.390;6.136;2022-11-20T11:40:12;101017.91;;;2.62;100.00
37202;BME280;37799;52.390;6.136;2022-11-20T11:42:43;101016.75;;;2.34;100.00
37202;BME280;37799;52.390;6.136;2022-11-20T11:45:14;101012.34;;;2.19;100.00
37202;BME280;37799;52.390;6.136;2022-11-20T11:55:42;100992.88;;;2.30;100.00
37202;BME280;37799;52.390;6.136;2022-11-20T11:58:46;100998.22;;;2.53;100.00
37202;BME280;37799;52.390;6.136;2022-11-20T12:01:28;100988.72;;;2.42;100.00
37202;BME280;37799;52.390;6.136;2022-11-20T12:06:48;100980.34;;;2.56;100.00
37202;BME280;37799;52.390;6.136;2022-11-20T12:09:17;100976.03;;;2.48;100.00
37202;BME280;37799;52.390;6.136;2022-11-20T12:11:53;100983.63;;;2.42;100.00
37202;BME280;37799;52.390;6.136;2022-11-20T12:14:31;100973.44;;;2.46;100.00
37202;BME280;37799;52.390;6.136;2022-11-20T12:17:00;100965.00;;;2.53;100.00
37202;BME280;37799;52.390;6.136;2022-11-20T12:19:31;100958.38;;;2.75;100.00
37202;BME280;37799;52.390;6.136;2022-11-20T12:22:37;100957.53;;;2.79;100.00
37202;BME280;37799;52.390;6.136;2022-11-20T12:25:20;100942.94;;;2.66;100.00
37202;BME280;37799;52.390;6.136;2022-11-20T12:28:02;100936.97;;;2.65;100.00
37202;BME280;37799;52.390;6.136;2022-11-20T12:30:32;100924.13;;;2.58;100.00
37202;BME280;37799;52.390;6.136;2022-11-20T12:33:49;100924.09;;;2.55;100.00
37202;BME280;37799;52.390;6.136;2022-11-20T12:36:19;100918.34;;;2.82;100.00
37202;BME280;37799;52.390;6.136;2022-11-20T12:53:44;100886.69;;;2.66;100.00
37202;BME280;37799;52.390;6.136;2022-11-20T12:59:25;100891.91;;;2.81;100.00
37202;BME280;37799;52.390;6.136;2022-11-20T13:05:00;100869.63;;;2.63;100.00
37202;BME280;37799;52.390;6.136;2022-11-20T13:07:30;100868.72;;;2.54;100.00
37202;BME280;37799;52.390;6.136;2022-11-20T13:09:56;100865.41;;;2.72;100.00
37202;BME280;37799;52.390;6.136;2022-11-20T13:12:25;100860.34;;;2.75;100.00
37202;BME280;37799;52.390;6.136;2022-11-20T13:15:18;100858.63;;;2.75;100.00
37202;BME280;37799;52.390;6.136;2022-11-20T13:17:53;100857.72;;;2.67;100.00
37202;BME280;37799;52.390;6.136;2022-11-20T13:20:19;100852.63;;;2.73;100.00
37202;BME280;37799;52.390;6.136;2022-11-20T13:22:53;100853.47;;;2.72;100.00
37202;BME280;37799;52.390;6.136;2022-11-20T13:25:35;100833.88;;;2.73;100.00
37202;BME280;37799;52.390;6.136;2022-11-20T13:28:26;100837.28;;;2.70;100.00
37202;BME280;37799;52.390;6.136;2022-11-20T13:30:53;100836.50;;;2.86;100.00
37202;BME280;37799;52.390;6.136;2022-11-20T13:33:27;100830.47;;;2.72;100.00
37202;BME280;37799;52.390;6.136;2022-11-20T13:36:05;100824.63;;;2.87;100.00
37202;BME280;37799;52.390;6.136;2022-11-20T13:38:46;100824.69;;;3.04;100.00
37202;BME280;37799;52.390;6.136;2022-11-20T13:41:11;100816.88;;;2.76;100.00
37202;BME280;37799;52.390;6.136;2022-11-20T13:43:58;100810.94;;;2.83;100.00
37202;BME280;37799;52.390;6.136;2022-11-20T13:46:35;100808.38;;;2.79;100.00
37202;BME280;37799;52.390;6.136;2022-11-20T13:49:07;100807.44;;;2.66;100.00